sensor_id;sensor_type;location;lat;lon;timestamp;temperature;humidity
4584;DHT22;2304;47.606;12.186;2024-03-17T00:02:28;11.00;85.40
4584;DHT22;2304;47.606;12.186;2024-03-17T00:07:30;11.00;84.50
4584;DHT22;2304;47.606;12.186;2024-03-17T00:12:33;10.90;84.90
4584;DHT22;2304;47.606;12.186;2024-03-17T00:17:35;10.80;85.00
4584;DHT22;2304;47.606;12.186;2024-03-17T00:22:37;10.90;84.30
4584;DHT22;2304;47.606;12.186;2024-03-17T00:27:41;10.80;84.10
4584;DHT22;2304;47.606;12.186;2024-03-17T00:32:45;10.90;84.10
4584;DHT22;2304;47.606;12.186;2024-03-17T00:37:47;10.90;84.70
4584;DHT22;2304;47.606;12.186;2024-03-17T00:42:50;10.90;84.30
4584;DHT22;2304;47.606;12.186;2024-03-17T00:47:54;10.80;85.20
4584;DHT22;2304;47.606;12.186;2024-03-17T00:52:56;10.80;84.30
4584;DHT22;2304;47.606;12.186;2024-03-17T00:57:59;10.90;83.70
4584;DHT22;2304;47.606;12.186;2024-03-17T01:03:01;10.90;84.10
4584;DHT22;2304;47.606;12.186;2024-03-17T01:08:03;10.80;84.70
4584;DHT22;2304;47.606;12.186;2024-03-17T01:13:07;10.80;85.20
4584;DHT22;2304;47.606;12.186;2024-03-17T01:18:10;10.80;85.70
4584;DHT22;2304;47.606;12.186;2024-03-17T01:23:12;10.70;86.10
4584;DHT22;2304;47.606;12.186;2024-03-17T01:28:16;10.80;85.00
4584;DHT22;2304;47.606;12.186;2024-03-17T01:33:18;10.80;84.70
4584;DHT22;2304;47.606;12.186;2024-03-17T01:38:21;10.70;86.10
4584;DHT22;2304;47.606;12.186;2024-03-17T01:43:24;10.60;85.30
4584;DHT22;2304;47.606;12.186;2024-03-17T01:48:26;10.60;84.00
4584;DHT22;2304;47.606;12.186;2024-03-17T01:53:28;10.60;82.30
4584;DHT22;2304;47.606;12.186;2024-03-17T01:58:33;10.60;80.80
4584;DHT22;2304;47.606;12.186;2024-03-17T02:03:36;10.60;80.30
4584;DHT22;2304;47.606;12.186;2024-03-17T02:08:47;10.80;80.00
4584;DHT22;2304;47.606;12.186;2024-03-17T02:13:51;10.90;80.20
4584;DHT22;2304;47.606;12.186;2024-03-17T02:18:54;10.60;81.00
4584;DHT22;2304;47.606;12.186;2024-03-17T02:23:58;10.60;79.40
4584;DHT22;2304;47.606;12.186;2024-03-17T02:29:00;10.60;79.90
4584;DHT22;2304;47.606;12.186;2024-03-17T02:34:01;10.60;80.40
4584;DHT22;2304;47.606;12.186;2024-03-17T02:39:05;10.60;80.30
4584;DHT22;2304;47.606;12.186;2024-03-17T02:44:25;10.50;80.30
4584;DHT22;2304;47.606;12.186;2024-03-17T02:49:27;10.50;80.30
4584;DHT22;2304;47.606;12.186;2024-03-17T02:54:37;10.50;80.30
4584;DHT22;2304;47.606;12.186;2024-03-17T02:59:40;10.40;80.10
4584;DHT22;2304;47.606;12.186;2024-03-17T03:04:42;10.40;79.80
4584;DHT22;2304;47.606;12.186;2024-03-17T03:09:45;10.30;79.30
4584;DHT22;2304;47.606;12.186;2024-03-17T03:14:47;10.30;79.20
4584;DHT22;2304;47.606;12.186;2024-03-17T03:19:49;10.20;79.90
4584;DHT22;2304;47.606;12.186;2024-03-17T03:24:53;10.10;79.60
4584;DHT22;2304;47.606;12.186;2024-03-17T03:29:55;10.10;78.80
4584;DHT22;2304;47.606;12.186;2024-03-17T03:34:57;10.00;78.50
4584;DHT22;2304;47.606;12.186;2024-03-17T03:40:00;9.90;78.80
4584;DHT22;2304;47.606;12.186;2024-03-17T03:45:02;9.80;79.10
4584;DHT22;2304;47.606;12.186;2024-03-17T03:50:06;9.80;79.00
4584;DHT22;2304;47.606;12.186;2024-03-17T03:55:12;9.80;78.10
4584;DHT22;2304;47.606;12.186;2024-03-17T04:00:15;9.80;78.20
4584;DHT22;2304;47.606;12.186;2024-03-17T04:05:21;9.80;77.70
4584;DHT22;2304;47.606;12.186;2024-03-17T04:10:25;9.80;78.70
4584;DHT22;2304;47.606;12.186;2024-03-17T04:15:27;9.60;79.00
4584;DHT22;2304;47.606;12.186;2024-03-17T04:20:29;9.60;79.20
4584;DHT22;2304;47.606;12.186;2024-03-17T04:25:33;9.60;79.00
4584;DHT22;2304;47.606;12.186;2024-03-17T04:30:34;9.60;79.20
4584;DHT22;2304;47.606;12.186;2024-03-17T04:35:36;9.60;79.60
4584;DHT22;2304;47.606;12.186;2024-03-17T04:40:41;9.70;80.10
4584;DHT22;2304;47.606;12.186;2024-03-17T04:45:43;9.70;79.50
4584;DHT22;2304;47.606;12.186;2024-03-17T04:50:46;9.80;79.70
4584;DHT22;2304;47.606;12.186;2024-03-17T04:56:00;9.70;79.60
4584;DHT22;2304;47.606;12.186;2024-03-17T05:01:04;9.60;80.20
4584;DHT22;2304;47.606;12.186;2024-03-17T05:06:07;9.70;80.30
4584;DHT22;2304;47.606;12.186;2024-03-17T05:11:10;9.60;80.60
4584;DHT22;2304;47.606;12.186;2024-03-17T05:16:14;9.70;81.10
4584;DHT22;2304;47.606;12.186;2024-03-17T05:21:17;9.60;81.60
4584;DHT22;2304;47.606;12.186;2024-03-17T05:26:20;9.90;81.80
4584;DHT22;2304;47.606;12.186;2024-03-17T05:31:22;9.60;80.90
4584;DHT22;2304;47.606;12.186;2024-03-17T05:36:24;9.60;81.00
4584;DHT22;2304;47.606;12.186;2024-03-17T05:41:27;9.50;81.60
4584;DHT22;2304;47.606;12.186;2024-03-17T05:46:29;9.50;82.10
4584;DHT22;2304;47.606;12.186;2024-03-17T05:51:31;9.50;82.50
4584;DHT22;2304;47.606;12.186;2024-03-17T05:56:35;9.60;82.30
4584;DHT22;2304;47.606;12.186;2024-03-17T06:01:36;9.70;82.80
4584;DHT22;2304;47.606;12.186;2024-03-17T06:06:38;9.60;83.70
4584;DHT22;2304;47.606;12.186;2024-03-17T06:11:42;9.60;84.20
4584;DHT22;2304;47.606;12.186;2024-03-17T06:16:43;9.70;84.00
4584;DHT22;2304;47.606;12.186;2024-03-17T06:21:45;9.80;85.50
4584;DHT22;2304;47.606;12.186;2024-03-17T06:26:50;10.00;84.60
4584;DHT22;2304;47.606;12.186;2024-03-17T06:31:52;10.10;82.80
4584;DHT22;2304;47.606;12.186;2024-03-17T06:36:54;9.90;81.00
4584;DHT22;2304;47.606;12.186;2024-03-17T06:41:57;9.70;81.50
4584;DHT22;2304;47.606;12.186;2024-03-17T06:46:59;9.60;80.20
4584;DHT22;2304;47.606;12.186;2024-03-17T06:52:01;9.60;81.30
4584;DHT22;2304;47.606;12.186;2024-03-17T06:57:04;9.60;82.20
4584;DHT22;2304;47.606;12.186;2024-03-17T07:02:07;9.60;82.40
4584;DHT22;2304;47.606;12.186;2024-03-17T07:07:09;9.60;82.00
4584;DHT22;2304;47.606;12.186;2024-03-17T07:12:12;9.60;80.60
4584;DHT22;2304;47.606;12.186;2024-03-17T07:17:14;9.60;79.50
4584;DHT22;2304;47.606;12.186;2024-03-17T07:22:16;9.60;78.60
4584;DHT22;2304;47.606;12.186;2024-03-17T07:27:19;9.60;76.90
4584;DHT22;2304;47.606;12.186;2024-03-17T07:32:21;9.70;77.40
4584;DHT22;2304;47.606;12.186;2024-03-17T07:37:23;9.80;77.00
4584;DHT22;2304;47.606;12.186;2024-03-17T07:42:27;10.10;76.70
4584;DHT22;2304;47.606;12.186;2024-03-17T07:47:29;10.10;75.80
4584;DHT22;2304;47.606;12.186;2024-03-17T07:52:36;10.20;76.30
4584;DHT22;2304;47.606;12.186;2024-03-17T07:57:39;10.80;76.40
4584;DHT22;2304;47.606;12.186;2024-03-17T08:02:41;11.30;74.80
4584;DHT22;2304;47.606;12.186;2024-03-17T08:07:44;11.70;71.70
4584;DHT22;2304;47.606;12.186;2024-03-17T08:12:47;12.10;71.60
4584;DHT22;2304;47.606;12.186;2024-03-17T08:17:49;12.40;70.40
4584;DHT22;2304;47.606;12.186;2024-03-17T08:22:50;12.40;69.10
4584;DHT22;2304;47.606;12.186;2024-03-17T08:27:54;12.60;67.60
4584;DHT22;2304;47.606;12.186;2024-03-17T08:32:55;12.90;70.50
4584;DHT22;2304;47.606;12.186;2024-03-17T08:37:57;13.40;67.60
4584;DHT22;2304;47.606;12.186;2024-03-17T08:43:02;13.60;65.50
4584;DHT22;2304;47.606;12.186;2024-03-17T08:48:05;14.10;63.60
4584;DHT22;2304;47.606;12.186;2024-03-17T08:53:07;14.20;61.10
4584;DHT22;2304;47.606;12.186;2024-03-17T08:58:10;14.20;61.60
4584;DHT22;2304;47.606;12.186;2024-03-17T09:03:12;14.00;59.40
4584;DHT22;2304;47.606;12.186;2024-03-17T09:08:16;14.00;59.90
4584;DHT22;2304;47.606;12.186;2024-03-17T09:13:23;13.70;58.70
4584;DHT22;2304;47.606;12.186;2024-03-17T09:18:26;13.60;59.30
4584;DHT22;2304;47.606;12.186;2024-03-17T09:23:29;13.70;60.10
4584;DHT22;2304;47.606;12.186;2024-03-17T09:28:33;13.80;59.70
4584;DHT22;2304;47.606;12.186;2024-03-17T09:33:35;14.10;59.00
4584;DHT22;2304;47.606;12.186;2024-03-17T09:38:38;14.30;59.00
4584;DHT22;2304;47.606;12.186;2024-03-17T09:43:41;14.40;57.90
4584;DHT22;2304;47.606;12.186;2024-03-17T09:48:44;14.70;58.90
4584;DHT22;2304;47.606;12.186;2024-03-17T09:53:46;15.10;57.40
4584;DHT22;2304;47.606;12.186;2024-03-17T09:58:50;15.30;57.10
4584;DHT22;2304;47.606;12.186;2024-03-17T10:03:53;15.50;56.60
4584;DHT22;2304;47.606;12.186;2024-03-17T10:08:57;15.50;56.20
4584;DHT22;2304;47.606;12.186;2024-03-17T10:14:01;15.70;56.00
4584;DHT22;2304;47.606;12.186;2024-03-17T10:19:07;15.70;55.30
4584;DHT22;2304;47.606;12.186;2024-03-17T10:24:11;16.10;55.70
4584;DHT22;2304;47.606;12.186;2024-03-17T10:29:22;16.20;55.60
4584;DHT22;2304;47.606;12.186;2024-03-17T10:34:27;16.40;54.00
4584;DHT22;2304;47.606;12.186;2024-03-17T10:39:30;16.50;54.60
4584;DHT22;2304;47.606;12.186;2024-03-17T10:44:36;16.50;55.50
4584;DHT22;2304;47.606;12.186;2024-03-17T10:49:38;16.70;54.50
4584;DHT22;2304;47.606;12.186;2024-03-17T10:54:40;16.60;55.50
4584;DHT22;2304;47.606;12.186;2024-03-17T10:59:50;16.50;54.80
4584;DHT22;2304;47.606;12.186;2024-03-17T11:04:55;16.60;54.50
4584;DHT22;2304;47.606;12.186;2024-03-17T11:09:59;16.80;54.60
4584;DHT22;2304;47.606;12.186;2024-03-17T11:20:56;17.50;55.40
4584;DHT22;2304;47.606;12.186;2024-03-17T11:25:59;18.00;53.90
4584;DHT22;2304;47.606;12.186;2024-03-17T11:31:01;18.40;52.40
4584;DHT22;2304;47.606;12.186;2024-03-17T11:36:34;18.30;52.20
4584;DHT22;2304;47.606;12.186;2024-03-17T11:41:39;18.30;51.70
4584;DHT22;2304;47.606;12.186;2024-03-17T11:46:42;18.20;51.40
4584;DHT22;2304;47.606;12.186;2024-03-17T11:51:46;18.30;50.40
4584;DHT22;2304;47.606;12.186;2024-03-17T11:56:50;18.30;50.40
4584;DHT22;2304;47.606;12.186;2024-03-17T12:01:52;18.30;50.20
4584;DHT22;2304;47.606;12.186;2024-03-17T12:06:59;18.00;51.40
4584;DHT22;2304;47.606;12.186;2024-03-17T12:12:02;18.50;52.20
4584;DHT22;2304;47.606;12.186;2024-03-17T12:17:07;18.40;50.50
4584;DHT22;2304;47.606;12.186;2024-03-17T12:22:15;18.40;50.30
4584;DHT22;2304;47.606;12.186;2024-03-17T12:27:19;18.30;49.80
4584;DHT22;2304;47.606;12.186;2024-03-17T12:32:22;18.50;50.90
4584;DHT22;2304;47.606;12.186;2024-03-17T12:37:27;18.30;49.70
4584;DHT22;2304;47.606;12.186;2024-03-17T12:42:34;18.00;48.80
4584;DHT22;2304;47.606;12.186;2024-03-17T12:47:38;18.10;46.70
4584;DHT22;2304;47.606;12.186;2024-03-17T12:52:51;18.00;47.90
4584;DHT22;2304;47.606;12.186;2024-03-17T12:58:05;18.00;47.20
4584;DHT22;2304;47.606;12.186;2024-03-17T13:03:26;18.00;47.50
4584;DHT22;2304;47.606;12.186;2024-03-17T13:08:31;17.90;46.10
4584;DHT22;2304;47.606;12.186;2024-03-17T13:13:33;18.00;47.20
4584;DHT22;2304;47.606;12.186;2024-03-17T13:18:34;18.00;47.10
4584;DHT22;2304;47.606;12.186;2024-03-17T13:23:38;18.10;47.90
4584;DHT22;2304;47.606;12.186;2024-03-17T13:28:39;18.10;47.70
4584;DHT22;2304;47.606;12.186;2024-03-17T13:33:41;18.20;48.70
4584;DHT22;2304;47.606;12.186;2024-03-17T13:38:44;18.10;48.20
4584;DHT22;2304;47.606;12.186;2024-03-17T13:43:46;18.10;48.50
4584;DHT22;2304;47.606;12.186;2024-03-17T13:48:49;18.00;48.50
4584;DHT22;2304;47.606;12.186;2024-03-17T13:53:52;17.80;48.40
4584;DHT22;2304;47.606;12.186;2024-03-17T13:58:54;17.90;49.00
4584;DHT22;2304;47.606;12.186;2024-03-17T14:03:56;17.80;48.60
4584;DHT22;2304;47.606;12.186;2024-03-17T14:09:00;17.90;49.10
4584;DHT22;2304;47.606;12.186;2024-03-17T14:14:01;17.90;48.50
4584;DHT22;2304;47.606;12.186;2024-03-17T14:19:05;17.80;48.70
4584;DHT22;2304;47.606;12.186;2024-03-17T14:24:09;17.60;49.00
4584;DHT22;2304;47.606;12.186;2024-03-17T14:29:11;17.50;49.50
4584;DHT22;2304;47.606;12.186;2024-03-17T14:34:13;17.50;49.80
4584;DHT22;2304;47.606;12.186;2024-03-17T14:39:16;17.40;49.60
4584;DHT22;2304;47.606;12.186;2024-03-17T14:44:18;17.30;50.10
4584;DHT22;2304;47.606;12.186;2024-03-17T14:49:20;17.10;50.20
4584;DHT22;2304;47.606;12.186;2024-03-17T14:54:23;16.90;50.20
4584;DHT22;2304;47.606;12.186;2024-03-17T14:59:26;16.80;50.50
4584;DHT22;2304;47.606;12.186;2024-03-17T15:04:28;16.80;51.10
4584;DHT22;2304;47.606;12.186;2024-03-17T15:09:32;16.70;51.00
4584;DHT22;2304;47.606;12.186;2024-03-17T15:14:34;16.70;50.90
4584;DHT22;2304;47.606;12.186;2024-03-17T15:19:38;16.60;51.20
4584;DHT22;2304;47.606;12.186;2024-03-17T15:24:44;16.50;51.50
4584;DHT22;2304;47.606;12.186;2024-03-17T15:29:45;16.50;52.20
4584;DHT22;2304;47.606;12.186;2024-03-17T15:34:47;16.50;52.20
4584;DHT22;2304;47.606;12.186;2024-03-17T15:39:51;16.30;53.00
4584;DHT22;2304;47.606;12.186;2024-03-17T15:44:56;16.20;52.50
4584;DHT22;2304;47.606;12.186;2024-03-17T15:49:58;16.10;53.00
4584;DHT22;2304;47.606;12.186;2024-03-17T15:55:01;16.00;53.00
4584;DHT22;2304;47.606;12.186;2024-03-17T16:00:05;16.00;53.70
4584;DHT22;2304;47.606;12.186;2024-03-17T16:05:08;16.00;53.80
4584;DHT22;2304;47.606;12.186;2024-03-17T16:10:18;16.00;53.90
4584;DHT22;2304;47.606;12.186;2024-03-17T16:15:22;16.00;53.90
4584;DHT22;2304;47.606;12.186;2024-03-17T16:20:56;15.80;53.90
4584;DHT22;2304;47.606;12.186;2024-03-17T16:26:00;16.00;53.80
4584;DHT22;2304;47.606;12.186;2024-03-17T16:31:02;15.90;54.20
4584;DHT22;2304;47.606;12.186;2024-03-17T16:36:10;15.90;54.20
4584;DHT22;2304;47.606;12.186;2024-03-17T16:41:13;15.70;54.00
4584;DHT22;2304;47.606;12.186;2024-03-17T16:46:39;15.90;54.50
4584;DHT22;2304;47.606;12.186;2024-03-17T16:51:45;15.80;55.00
4584;DHT22;2304;47.606;12.186;2024-03-17T16:56:48;15.80;54.80
4584;DHT22;2304;47.606;12.186;2024-03-17T17:01:50;15.70;55.10
4584;DHT22;2304;47.606;12.186;2024-03-17T17:06:52;15.70;55.20
4584;DHT22;2304;47.606;12.186;2024-03-17T17:11:55;15.60;55.80
4584;DHT22;2304;47.606;12.186;2024-03-17T17:16:57;15.50;57.00
4584;DHT22;2304;47.606;12.186;2024-03-17T17:22:01;15.50;57.10
4584;DHT22;2304;47.606;12.186;2024-03-17T17:27:06;15.50;57.10
4584;DHT22;2304;47.606;12.186;2024-03-17T17:32:09;15.40;57.30
4584;DHT22;2304;47.606;12.186;2024-03-17T17:37:11;15.40;57.50
4584;DHT22;2304;47.606;12.186;2024-03-17T17:42:14;15.30;57.50
4584;DHT22;2304;47.606;12.186;2024-03-17T17:47:16;15.20;57.80
4584;DHT22;2304;47.606;12.186;2024-03-17T17:52:18;15.00;58.40
4584;DHT22;2304;47.606;12.186;2024-03-17T17:57:22;14.90;58.70
4584;DHT22;2304;47.606;12.186;2024-03-17T18:02:26;14.80;59.10
4584;DHT22;2304;47.606;12.186;2024-03-17T18:07:29;14.60;60.70
4584;DHT22;2304;47.606;12.186;2024-03-17T18:12:33;14.50;60.80
4584;DHT22;2304;47.606;12.186;2024-03-17T18:17:35;14.60;61.00
4584;DHT22;2304;47.606;12.186;2024-03-17T18:22:37;14.50;61.20
4584;DHT22;2304;47.606;12.186;2024-03-17T18:27:40;14.40;61.00
4584;DHT22;2304;47.606;12.186;2024-03-17T18:32:42;14.20;61.40
4584;DHT22;2304;47.606;12.186;2024-03-17T18:37:44;14.20;62.20
4584;DHT22;2304;47.606;12.186;2024-03-17T18:42:47;14.10;62.30
4584;DHT22;2304;47.606;12.186;2024-03-17T18:47:50;14.10;62.20
4584;DHT22;2304;47.606;12.186;2024-03-17T18:52:52;14.00;62.60
4584;DHT22;2304;47.606;12.186;2024-03-17T18:57:55;14.00;62.70
4584;DHT22;2304;47.606;12.186;2024-03-17T19:02:57;13.90;63.00
4584;DHT22;2304;47.606;12.186;2024-03-17T19:07:59;13.80;63.20
4584;DHT22;2304;47.606;12.186;2024-03-17T19:13:04;13.80;63.40
4584;DHT22;2304;47.606;12.186;2024-03-17T19:18:06;13.80;63.20
4584;DHT22;2304;47.606;12.186;2024-03-17T19:23:10;13.70;63.10
4584;DHT22;2304;47.606;12.186;2024-03-17T19:28:13;13.70;63.20
4584;DHT22;2304;47.606;12.186;2024-03-17T19:33:15;13.60;63.60
4584;DHT22;2304;47.606;12.186;2024-03-17T19:38:17;13.60;63.80
4584;DHT22;2304;47.606;12.186;2024-03-17T19:43:20;13.50;64.00
4584;DHT22;2304;47.606;12.186;2024-03-17T19:48:22;13.50;63.80
4584;DHT22;2304;47.606;12.186;2024-03-17T19:53:24;13.50;64.40
4584;DHT22;2304;47.606;12.186;2024-03-17T19:58:28;13.50;64.30
4584;DHT22;2304;47.606;12.186;2024-03-17T20:03:30;13.50;64.60
4584;DHT22;2304;47.606;12.186;2024-03-17T20:08:33;13.40;64.40
4584;DHT22;2304;47.606;12.186;2024-03-17T20:13:37;13.40;64.70
4584;DHT22;2304;47.606;12.186;2024-03-17T20:18:39;13.40;64.60
4584;DHT22;2304;47.606;12.186;2024-03-17T20:23:41;13.40;64.50
4584;DHT22;2304;47.606;12.186;2024-03-17T20:28:45;13.30;64.70
4584;DHT22;2304;47.606;12.186;2024-03-17T20:33:48;13.30;65.00
4584;DHT22;2304;47.606;12.186;2024-03-17T20:38:51;13.40;65.00
4584;DHT22;2304;47.606;12.186;2024-03-17T20:43:54;13.20;65.30
4584;DHT22;2304;47.606;12.186;2024-03-17T20:48:56;13.20;65.60
4584;DHT22;2304;47.606;12.186;2024-03-17T20:53:57;13.00;66.00
4584;DHT22;2304;47.606;12.186;2024-03-17T20:59:01;13.10;65.50
4584;DHT22;2304;47.606;12.186;2024-03-17T21:04:04;13.00;65.80
4584;DHT22;2304;47.606;12.186;2024-03-17T21:09:07;13.00;65.90
4584;DHT22;2304;47.606;12.186;2024-03-17T21:14:12;12.90;67.00
4584;DHT22;2304;47.606;12.186;2024-03-17T21:19:14;12.60;67.00
4584;DHT22;2304;47.606;12.186;2024-03-17T21:24:16;12.90;67.00
4584;DHT22;2304;47.606;12.186;2024-03-17T21:29:19;12.90;66.70
4584;DHT22;2304;47.606;12.186;2024-03-17T21:34:22;12.90;66.30
4584;DHT22;2304;47.606;12.186;2024-03-17T21:39:25;12.90;66.60
4584;DHT22;2304;47.606;12.186;2024-03-17T21:44:29;12.90;66.60
4584;DHT22;2304;47.606;12.186;2024-03-17T21:49:31;12.90;66.50
4584;DHT22;2304;47.606;12.186;2024-03-17T21:54:33;12.90;66.60
4584;DHT22;2304;47.606;12.186;2024-03-17T21:59:36;12.90;67.30
4584;DHT22;2304;47.606;12.186;2024-03-17T22:04:39;12.80;67.80
4584;DHT22;2304;47.606;12.186;2024-03-17T22:09:41;12.80;67.80
4584;DHT22;2304;47.606;12.186;2024-03-17T22:14:44;12.80;67.60
4584;DHT22;2304;47.606;12.186;2024-03-17T22:19:46;12.70;68.10
4584;DHT22;2304;47.606;12.186;2024-03-17T22:24:48;12.70;68.40
4584;DHT22;2304;47.606;12.186;2024-03-17T22:29:52;12.70;68.20
4584;DHT22;2304;47.606;12.186;2024-03-17T22:34:54;12.60;68.20
4584;DHT22;2304;47.606;12.186;2024-03-17T22:39:55;12.70;68.00
4584;DHT22;2304;47.606;12.186;2024-03-17T22:44:59;12.60;68.60
4584;DHT22;2304;47.606;12.186;2024-03-17T22:50:02;12.70;69.70
4584;DHT22;2304;47.606;12.186;2024-03-17T22:55:04;12.50;69.10
4584;DHT22;2304;47.606;12.186;2024-03-17T23:00:09;12.40;70.30
4584;DHT22;2304;47.606;12.186;2024-03-17T23:05:23;12.40;70.70
4584;DHT22;2304;47.606;12.186;2024-03-17T23:10:25;12.30;71.70
4584;DHT22;2304;47.606;12.186;2024-03-17T23:15:30;12.10;72.20
4584;DHT22;2304;47.606;12.186;2024-03-17T23:20:36;12.00;72.80
4584;DHT22;2304;47.606;12.186;2024-03-17T23:25:39;11.80;73.70
4584;DHT22;2304;47.606;12.186;2024-03-17T23:30:42;11.70;74.80
4584;DHT22;2304;47.606;12.186;2024-03-17T23:35:46;11.60;75.40
4584;DHT22;2304;47.606;12.186;2024-03-17T23:40:51;11.60;75.70
4584;DHT22;2304;47.606;12.186;2024-03-17T23:45:55;11.50;76.00
4584;DHT22;2304;47.606;12.186;2024-03-17T23:50:57;11.60;76.20
4584;DHT22;2304;47.606;12.186;2024-03-17T23:55:59;11.40;76.60
